SVBC/BLA METAR and TAF weather

Enter ICAO airport designator
Station Type Date Time Source
SVBC METAR 2022/07/01 00:03 UTC NOAA

SVBC 010003Z AUTO 04004KT NCD 29/22 Q1011


Station Type Date Time Source
SVBC Decoded METAR 2022/07/01 00:03 UTC NOAA

Barcelona, Venezuela (SVBC) 10-07N 064-41W 7M
Jun 30, 2022 - 08:03 PM EDT / 2022.07.01 0003 UTC
Wind: from the NE (040 degrees) at 5 MPH (4 KT):0
Temperature: 84 F (29 C)
Dew Point: 71 F (22 C)
Relative Humidity: 65%
Pressure (altimeter): 29.85 in. Hg (1011 hPa)
ob: SVBC 010003Z AUTO 04004KT NCD 29/22 Q1011
cycle: 0

Station Type Date Time Source
SVBC TAF 2022/06/30 18:57 UTC NOAA

TAF SVBC 301600Z 3018/0118 06010KT 9999 SCT016 TX32/3018Z TN23/0108Z
BECMG 3018/3022 06005KT 9999 FEW016 SCT100

Example: see airport list